Time;durP1;ratioP1;P1;durP2;ratioP2;P2;SDS_P1;SDS_P2;PMS_P1;PMS_P2;Temp;Humidity;BMP_temperature;BMP_pressure;BME280_temperature;BME280_humidity;BME280_pressure;Samples;Min_cycle;Max_cycle;Signal;HPM_P1;HPM_P2
2022/05/25 00:00:39;;;;;;;8.80;7.90;;;;;;;18.17;100.00;98124.78;5038245;28;20909;-60
2022/05/25 00:03:06;;;;;;;9.57;7.68;;;;;;;18.19;100.00;98122.84;5040015;28;20192;-60
2022/05/25 00:05:32;;;;;;;9.90;8.15;;;;;;;18.09;100.00;98132.63;5036986;28;20677;-60
2022/05/25 00:07:58;;;;;;;10.32;7.93;;;;;;;18.28;100.00;98127.09;5042811;28;20192;-61
2022/05/25 00:10:24;;;;;;;11.77;7.65;;;;;;;18.29;100.00;98123.50;5040337;28;20186;-60
2022/05/25 00:12:50;;;;;;;9.15;7.88;;;;;;;18.34;100.00;98131.72;5037421;28;20733;-60
2022/05/25 00:15:15;;;;;;;8.05;7.05;;;;;;;18.22;100.00;98128.56;5041023;28;20181;-60
2022/05/25 00:17:41;;;;;;;10.48;7.38;;;;;;;18.02;100.00;98132.41;5039165;28;20481;-60
2022/05/25 00:20:08;;;;;;;8.50;7.60;;;;;;;17.87;100.00;98141.03;5025553;28;20495;-60
2022/05/25 00:22:40;;;;;;;15.38;8.40;;;;;;;17.82;100.00;98140.66;5018748;28;20210;-60
2022/05/25 00:25:07;;;;;;;8.75;7.60;;;;;;;18.07;100.00;98140.63;5020933;28;20247;-60
2022/05/25 00:27:33;;;;;;;8.50;7.55;;;;;;;18.30;100.00;98146.13;5034033;28;21029;-60
2022/05/25 00:29:58;;;;;;;7.55;6.80;;;;;;;18.18;100.00;98137.72;5044566;28;20814;-60
2022/05/25 00:32:24;;;;;;;9.52;7.97;;;;;;;18.43;100.00;98157.78;5037502;28;20272;-60
2022/05/25 00:34:50;;;;;;;9.43;8.52;;;;;;;18.55;100.00;98146.06;5044814;28;20581;-60
2022/05/25 00:37:15;;;;;;;11.93;10.65;;;;;;;18.73;100.00;98159.00;5047356;28;20227;-61
2022/05/25 00:39:41;;;;;;;16.35;11.07;;;;;;;18.73;100.00;98154.59;5043696;28;20193;-60
2022/05/25 00:42:07;;;;;;;13.95;12.55;;;;;;;18.70;100.00;98160.16;5038466;28;20240;-60
2022/05/25 00:44:33;;;;;;;15.13;13.82;;;;;;;18.78;100.00;98165.38;5038585;28;20669;-60
2022/05/25 00:46:59;;;;;;;17.70;16.08;;;;;;;18.85;100.00;98162.94;5037320;28;20189;-60
2022/05/25 00:49:32;;;;;;;16.08;14.57;;;;;;;18.86;100.00;98167.22;5029014;28;20281;-61
2022/05/25 00:52:11;;;;;;;22.58;18.05;;;;;;;18.90;100.00;98151.00;5032880;28;20268;-60
2022/05/25 00:54:41;;;;;;;22.65;19.70;;;;;;;18.94;100.00;98162.00;5041450;28;20577;-60
2022/05/25 00:57:22;;;;;;;25.38;22.33;;;;;;;18.93;100.00;98157.69;5036006;28;20220;-60
2022/05/25 00:59:54;;;;;;;32.63;25.63;;;;;;;18.93;100.00;98160.31;5032995;28;20196;-60
2022/05/25 01:02:20;;;;;;;36.55;27.58;;;;;;;18.81;100.00;98164.25;5025624;28;20342;-60
2022/05/25 01:04:47;;;;;;;39.75;28.33;;;;;;;18.74;100.00;98158.03;5018251;28;20588;-61
2022/05/25 01:07:24;;;;;;;41.50;28.30;;;;;;;18.77;100.00;98162.94;5021018;28;20432;-61
2022/05/25 01:10:14;;;;;;;35.80;26.20;;;;;;;18.81;100.00;98164.25;5033811;28;20216;-60
2022/05/25 01:13:16;;;;;;;36.63;26.92;;;;;;;18.71;100.00;98163.59;5033351;28;20184;-60
2022/05/25 01:15:53;;;;;;;35.42;25.88;;;;;;;18.65;100.00;98161.63;5032340;28;21201;-61
2022/05/25 01:18:22;;;;;;;41.30;28.52;;;;;;;18.48;100.00;98168.59;5043404;28;20192;-60
2022/05/25 01:21:01;;;;;;;38.88;28.73;;;;;;;18.51;100.00;98176.16;5038386;28;20202;-61
2022/05/25 01:23:54;;;;;;;40.70;27.70;;;;;;;18.34;100.00;98173.66;5026164;28;20185;-60
2022/05/25 01:26:42;;;;;;;39.00;28.25;;;;;;;18.31;100.00;98179.19;5018453;28;20181;-60
2022/05/25 01:29:31;;;;;;;37.10;26.95;;;;;;;18.29;100.00;98178.50;5027623;28;20184;-60
2022/05/25 01:32:07;;;;;;;38.40;24.92;;;;;;;18.32;100.00;98186.09;5032994;28;20732;-61
2022/05/25 01:34:47;;;;;;;30.67;21.83;;;;;;;18.39;100.00;98187.94;5037573;28;20196;-60
2022/05/25 01:37:34;;;;;;;31.65;21.83;;;;;;;18.46;100.00;98188.91;5034617;28;20181;-60
2022/05/25 01:40:08;;;;;;;32.17;22.52;;;;;;;18.40;100.00;98199.22;5037973;28;20198;-60
2022/05/25 01:42:52;;;;;;;32.90;23.20;;;;;;;18.33;100.00;98198.22;5040676;28;20197;-61
2022/05/25 01:45:20;;;;;;;30.85;22.38;;;;;;;18.22;100.00;98201.91;5017671;28;20189;-60
2022/05/25 01:47:49;;;;;;;33.95;22.45;;;;;;;18.21;100.00;98199.44;5017775;28;20193;-60
2022/05/25 01:50:20;;;;;;;30.27;19.90;;;;;;;18.27;100.00;98193.56;5027522;28;20221;-60
2022/05/25 01:52:51;;;;;;;29.23;20.38;;;;;;;18.22;100.00;98203.69;5033777;28;20211;-60
2022/05/25 01:55:36;;;;;;;34.08;22.83;;;;;;;18.27;100.00;98196.19;5036806;28;20935;-61
2022/05/25 01:58:06;;;;;;;33.78;23.08;;;;;;;18.39;100.00;98202.81;5044674;28;20728;-60
2022/05/25 02:00:39;;;;;;;33.92;23.30;;;;;;;18.37;100.00;98204.78;5032468;28;20182;-60
2022/05/25 02:05:56;;;;;;;35.10;22.55;;;;;;;18.15;100.00;98205.31;5034810;28;20266;-60
2022/05/25 02:08:32;;;;;;;44.22;26.23;;;;;;;18.07;100.00;98208.69;5037047;28;20211;-60
2022/05/25 02:11:33;;;;;;;45.65;26.50;;;;;;;17.96;100.00;98205.53;5040962;28;20212;-60
2022/05/25 02:14:08;;;;;;;47.70;26.60;;;;;;;17.97;100.00;98202.78;5039921;28;20661;-60
2022/05/25 02:16:52;;;;;;;55.60;30.35;;;;;;;17.84;100.00;98202.34;5043416;28;20180;-60
2022/05/25 02:20:09;;;;;;;53.50;30.52;;;;;;;17.75;100.00;98212.94;5031522;28;20238;-60
2022/05/25 02:22:41;;;;;;;59.05;30.55;;;;;;;17.77;100.00;98206.56;5029942;28;20239;-61
2022/05/25 02:25:18;;;;;;;47.88;27.75;;;;;;;17.83;100.00;98211.19;5035849;28;20979;-60
2022/05/25 02:28:17;;;;;;;43.53;24.83;;;;;;;17.77;100.00;98221.47;5015554;28;20200;-60
2022/05/25 02:30:51;;;;;;;39.00;23.02;;;;;;;17.49;100.00;98194.63;5016984;28;20197;-60
2022/05/25 02:33:49;;;;;;;39.22;22.40;;;;;;;17.69;100.00;98229.25;5028953;28;20187;-60
2022/05/25 02:36:16;;;;;;;35.88;21.88;;;;;;;17.59;100.00;98228.53;5038258;28;20207;-60
2022/05/25 02:38:43;;;;;;;36.28;22.48;;;;;;;17.60;100.00;98233.59;5040217;28;20189;-60
2022/05/25 02:41:30;;;;;;;34.05;23.27;;;;;;;17.58;100.00;98226.88;5043404;28;20212;-60
2022/05/25 02:43:56;;;;;;;37.80;23.85;;;;;;;17.38;100.00;98231.47;5041726;28;20180;-60
2022/05/25 02:46:21;;;;;;;44.00;25.13;;;;;;;17.47;100.00;98240.22;5034666;28;20217;-60
2022/05/25 02:48:47;;;;;;;37.50;21.95;;;;;;;17.59;100.00;98239.00;5015582;28;20225;-60
2022/05/25 02:51:12;;;;;;;30.05;19.83;;;;;;;17.58;100.00;98240.81;5017386;28;20240;-60
2022/05/25 02:53:38;;;;;;;26.70;18.13;;;;;;;17.41;100.00;98241.66;5024153;28;20359;-60
2022/05/25 02:56:05;;;;;;;23.15;17.40;;;;;;;17.37;100.00;98242.88;5033832;28;20264;-61
2022/05/25 02:58:30;;;;;;;23.90;17.63;;;;;;;17.45;100.00;98236.94;5031357;28;20717;-61
2022/05/25 03:00:56;;;;;;;24.70;17.83;;;;;;;17.47;100.00;98241.03;5032073;28;20288;-60
2022/05/25 03:03:22;;;;;;;21.73;16.95;;;;;;;17.62;100.00;98250.00;5036521;28;20196;-60
2022/05/25 03:05:48;;;;;;;26.42;16.30;;;;;;;17.80;100.00;98255.19;5026960;28;20273;-60
2022/05/25 03:08:14;;;;;;;33.05;21.88;;;;;;;17.80;100.00;98252.56;5039108;28;20238;-60
2022/05/25 03:10:40;;;;;;;34.03;20.55;;;;;;;17.82;100.00;98255.84;5036301;28;20573;-60
2022/05/25 03:13:06;;;;;;;32.90;20.80;;;;;;;17.69;100.00;98252.81;5037863;28;20899;-61
2022/05/25 03:15:32;;;;;;;37.63;23.38;;;;;;;17.55;100.00;98248.13;5040556;28;20192;-60
2022/05/25 03:17:57;;;;;;;33.47;22.13;;;;;;;17.55;100.00;98258.59;5028726;28;20558;-60
2022/05/25 03:20:23;;;;;;;36.50;21.60;;;;;;;17.47;100.00;98266.38;5033249;28;20562;-60
2022/05/25 03:22:48;;;;;;;36.33;22.42;;;;;;;17.43;100.00;98265.03;5030276;28;20216;-60
2022/05/25 03:25:14;;;;;;;36.58;22.15;;;;;;;17.50;100.00;98268.69;5034752;28;20189;-60
2022/05/25 03:27:40;;;;;;;34.55;23.23;;;;;;;17.52;100.00;98264.13;5032620;28;20224;-60
2022/05/25 03:30:08;;;;;;;27.25;18.55;;;;;;;17.57;100.00;98269.72;5036984;28;20220;-60
2022/05/25 03:32:34;;;;;;;18.23;13.57;;;;;;;17.68;100.00;98270.31;5036719;28;20181;-61
2022/05/25 03:35:00;;;;;;;28.17;15.68;;;;;;;17.49;100.00;98277.53;5038621;28;20224;-60
2022/05/25 03:37:26;;;;;;;27.90;17.75;;;;;;;17.64;100.00;98274.22;5043325;28;20224;-60
2022/05/25 03:39:52;;;;;;;36.20;20.95;;;;;;;17.84;100.00;98277.47;5034628;28;20250;-60
2022/05/25 03:42:18;;;;;;;35.90;20.58;;;;;;;17.98;100.00;98288.19;5037876;28;20782;-61
2022/05/25 03:44:44;;;;;;;35.15;21.08;;;;;;;18.12;100.00;98289.44;5040895;28;20263;-61
2022/05/25 03:47:10;;;;;;;37.05;20.98;;;;;;;18.17;100.00;98293.22;5040117;28;20576;-61
2022/05/25 03:49:36;;;;;;;38.10;21.45;;;;;;;18.24;100.00;98296.06;5038684;28;20638;-61
2022/05/25 03:52:04;;;;;;;39.15;22.50;;;;;;;18.37;100.00;98294.66;5018766;28;20897;-61
2022/05/25 03:54:30;;;;;;;41.28;22.73;;;;;;;18.38;100.00;98305.97;5021098;28;20651;-61
2022/05/25 03:56:56;;;;;;;44.10;22.85;;;;;;;18.19;100.00;98298.31;5031836;28;20244;-60
2022/05/25 03:59:21;;;;;;;40.33;22.60;;;;;;;18.25;100.00;98308.16;5036481;28;20268;-60
2022/05/25 04:01:47;;;;;;;38.63;23.65;;;;;;;18.22;100.00;98308.47;5046433;28;20674;-60
2022/05/25 04:04:12;;;;;;;40.72;23.20;;;;;;;18.00;100.00;98306.34;5038090;28;20192;-60
2022/05/25 04:06:38;;;;;;;29.13;18.58;;;;;;;17.96;100.00;98311.06;5042409;28;20707;-60
2022/05/25 04:09:05;;;;;;;26.33;16.92;;;;;;;18.05;100.00;98310.16;5042818;28;20199;-60
2022/05/25 04:11:31;;;;;;;21.98;15.85;;;;;;;18.14;100.00;98313.66;5038870;28;20189;-60
2022/05/25 04:13:57;;;;;;;25.10;16.13;;;;;;;18.04;100.00;98315.53;5038955;28;20181;-61
2022/05/25 04:16:22;;;;;;;20.40;14.85;;;;;;;18.05;100.00;98317.19;5041261;28;21000;-60
2022/05/25 04:18:48;;;;;;;23.15;14.38;;;;;;;18.19;100.00;98314.03;5030180;28;20193;-61
2022/05/25 04:21:13;;;;;;;25.55;16.38;;;;;;;18.20;100.00;98319.09;5034621;28;20285;-61
2022/05/25 04:23:39;;;;;;;20.50;15.75;;;;;;;18.15;100.00;98318.75;5035990;28;20201;-60
2022/05/25 04:26:05;;;;;;;20.73;15.32;;;;;;;18.28;100.00;98315.69;5035913;28;20185;-60
2022/05/25 04:28:31;;;;;;;19.48;15.30;;;;;;;18.34;100.00;98329.03;5035772;28;20193;-60
2022/05/25 04:30:57;;;;;;;19.90;15.25;;;;;;;18.31;100.00;98325.88;5043402;28;20200;-60
2022/05/25 04:33:22;;;;;;;21.80;15.02;;;;;;;18.15;100.00;98328.38;5019723;28;20651;-60
2022/05/25 04:35:48;;;;;;;37.72;17.52;;;;;;;18.23;100.00;98324.03;5019228;28;20190;-60
2022/05/25 04:38:15;;;;;;;41.53;20.67;;;;;;;18.28;100.00;98326.19;5026075;28;20185;-60
2022/05/25 04:40:43;;;;;;;45.13;18.25;;;;;;;18.47;100.00;98329.44;5044300;28;20245;-61
2022/05/25 04:43:17;;;;;;;46.63;18.88;;;;;;;18.54;100.00;98335.69;5048759;28;20193;-61
2022/05/25 04:45:44;;;;;;;47.90;18.33;;;;;;;18.45;100.00;98341.03;5037073;28;20685;-60
2022/05/25 04:48:12;;;;;;;50.35;18.95;;;;;;;18.39;100.00;98339.88;5041029;28;20219;-61
2022/05/25 04:50:40;;;;;;;46.35;19.30;;;;;;;18.25;100.00;98334.34;5030253;28;20571;-61
2022/05/25 04:53:08;;;;;;;43.80;19.38;;;;;;;18.40;100.00;98338.91;5030471;28;20185;-60
2022/05/25 04:58:27;;;;;;;48.10;20.40;;;;;;;18.23;100.00;98350.22;5020217;28;20294;-60
2022/05/25 05:00:53;;;;;;;46.65;19.75;;;;;;;18.44;100.00;98342.03;5031971;28;20255;-60
2022/05/25 05:03:20;;;;;;;42.00;18.42;;;;;;;18.57;100.00;98350.28;5039183;28;20194;-60
2022/05/25 05:05:46;;;;;;;37.88;18.98;;;;;;;18.62;100.00;98355.88;5033264;28;20281;-60
2022/05/25 05:08:12;;;;;;;41.60;19.08;;;;;;;18.33;100.00;98345.75;5044171;28;20271;-60
2022/05/25 05:10:37;;;;;;;38.33;17.15;;;;;;;18.32;100.00;98354.59;5040510;28;20277;-60
2022/05/25 05:13:07;;;;;;;39.22;19.20;;;;;;;18.37;100.00;98357.53;5031312;28;20659;-60
2022/05/25 05:15:39;;;;;;;43.72;19.35;;;;;;;18.37;100.00;98375.06;5016859;28;20213;-62
2022/05/25 05:18:05;;;;;;;44.80;20.65;;;;;;;18.19;100.00;98364.59;5018941;28;20193;-60
2022/05/25 05:20:31;;;;;;;49.38;20.35;;;;;;;17.96;100.00;98373.09;5028858;28;20271;-60
2022/05/25 05:22:56;;;;;;;43.13;20.67;;;;;;;17.68;100.00;98368.94;5039736;28;20299;-60
2022/05/25 05:25:22;;;;;;;50.35;19.80;;;;;;;17.80;100.00;98365.09;5031768;28;20196;-60
2022/05/25 05:27:47;;;;;;;43.28;20.52;;;;;;;17.68;100.00;98358.47;5045891;28;20246;-60
2022/05/25 05:30:17;;;;;;;46.55;21.45;;;;;;;17.58;100.00;98360.31;5031569;28;20188;-60
2022/05/25 05:32:43;;;;;;;51.63;20.42;;;;;;;17.58;100.00;98368.19;5043032;28;20765;-60
2022/05/25 05:35:09;;;;;;;44.80;20.55;;;;;;;17.65;100.00;98371.84;5034947;28;20271;-60
2022/05/25 05:37:41;;;;;;;44.95;21.55;;;;;;;17.86;100.00;98375.81;5036880;28;20318;-60
2022/05/25 05:40:09;;;;;;;47.45;20.50;;;;;;;18.10;100.00;98389.09;5038663;28;20177;-60
2022/05/25 05:42:39;;;;;;;54.33;22.13;;;;;;;17.93;100.00;98374.22;5037242;28;20283;-60
2022/05/25 05:45:12;;;;;;;50.05;21.55;;;;;;;17.84;100.00;98379.56;5046929;28;20271;-60
2022/05/25 05:47:43;;;;;;;43.03;22.10;;;;;;;17.82;100.00;98382.31;5033614;28;20569;-60
2022/05/25 05:50:10;;;;;;;48.22;22.40;;;;;;;17.80;100.00;98384.28;5040247;28;20181;-60
2022/05/25 05:52:36;;;;;;;44.55;21.98;;;;;;;17.92;100.00;98382.22;5041349;28;20746;-60
2022/05/25 05:55:03;;;;;;;43.75;21.92;;;;;;;17.92;100.00;98387.47;5034782;28;20200;-60
2022/05/25 05:57:28;;;;;;;53.85;23.10;;;;;;;17.82;100.00;98378.84;5018767;28;20217;-60
2022/05/25 05:59:54;;;;;;;41.47;22.63;;;;;;;17.91;100.00;98394.50;5017721;28;20889;-60
2022/05/25 06:02:19;;;;;;;52.15;22.35;;;;;;;18.04;100.00;98381.84;5024069;28;20202;-60
2022/05/25 06:04:45;;;;;;;48.05;23.08;;;;;;;18.14;100.00;98381.75;5038046;28;20273;-60
2022/05/25 06:07:11;;;;;;;52.58;22.60;;;;;;;18.07;100.00;98385.97;5040048;28;20184;-60
2022/05/25 06:09:37;;;;;;;48.00;21.13;;;;;;;18.13;100.00;98390.59;5034923;28;20654;-60
2022/05/25 06:12:02;;;;;;;43.53;22.60;;;;;;;18.13;100.00;98386.16;5031174;28;20182;-60
2022/05/25 06:14:28;;;;;;;41.60;22.38;;;;;;;18.14;100.00;98387.00;5036103;28;20204;-60
2022/05/25 06:19:38;;;;;;;44.25;22.00;;;;;;;18.19;100.00;98384.75;5016374;28;20268;-60
2022/05/25 06:22:07;;;;;;;42.47;21.42;;;;;;;18.19;100.00;98389.97;5018136;28;20206;-60
2022/05/25 06:24:40;;;;;;;49.35;22.23;;;;;;;18.26;100.00;98394.47;5038537;28;20182;-60
2022/05/25 06:27:08;;;;;;;38.05;21.23;;;;;;;18.25;100.00;98400.66;5032417;28;20178;-60
2022/05/25 06:29:38;;;;;;;39.20;21.00;;;;;;;18.33;100.00;98406.00;5039132;28;20181;-60
2022/05/25 06:32:05;;;;;;;38.40;20.25;;;;;;;18.33;100.00;98392.91;5033299;28;20184;-61
2022/05/25 06:34:31;;;;;;;39.67;21.15;;;;;;;18.33;100.00;98392.91;5038769;28;20196;-60
2022/05/25 06:36:57;;;;;;;41.80;22.05;;;;;;;18.33;100.00;98392.06;5035730;28;20565;-61
2022/05/25 06:39:22;;;;;;;39.40;20.40;;;;;;;18.37;100.00;98399.44;5032872;28;20196;-60
2022/05/25 06:41:47;;;;;;;40.72;20.33;;;;;;;18.45;100.00;98401.31;5036583;28;20254;-60
2022/05/25 06:44:13;;;;;;;41.40;20.50;;;;;;;18.46;100.00;98405.56;5037984;28;20209;-60
2022/05/25 06:46:38;;;;;;;38.63;20.48;;;;;;;18.21;100.00;98412.44;5039466;28;20250;-60
2022/05/25 06:49:04;;;;;;;42.30;21.25;;;;;;;18.36;100.00;98412.72;5036172;28;20186;-59
2022/05/25 06:51:32;;;;;;;41.47;21.27;;;;;;;18.46;100.00;98402.94;5036126;28;20616;-61
2022/05/25 06:53:58;;;;;;;37.15;20.75;;;;;;;18.58;100.00;98406.94;5037736;28;20246;-61
2022/05/25 06:56:25;;;;;;;30.60;19.58;;;;;;;18.81;100.00;98414.13;5041745;28;20198;-59
2022/05/25 06:58:54;;;;;;;34.42;19.85;;;;;;;18.80;100.00;98409.88;5026441;28;20213;-60
2022/05/25 07:01:21;;;;;;;37.47;20.42;;;;;;;18.97;100.00;98413.38;5014640;28;20209;-60
2022/05/25 07:03:47;;;;;;;36.17;21.90;;;;;;;18.70;100.00;98405.72;5017881;28;20580;-60
2022/05/25 07:06:15;;;;;;;39.22;21.58;;;;;;;18.75;100.00;98419.16;5031679;28;20191;-61
2022/05/25 07:08:40;;;;;;;36.42;21.52;;;;;;;18.96;100.00;98423.06;5038483;28;20188;-60
2022/05/25 07:11:06;;;;;;;36.10;20.77;;;;;;;19.22;100.00;98415.16;5044018;28;20177;-61
2022/05/25 07:13:32;;;;;;;34.65;19.67;;;;;;;19.48;100.00;98424.59;5033897;28;20281;-60
2022/05/25 07:16:01;;;;;;;29.17;18.75;;;;;;;19.60;100.00;98431.22;5036869;28;20644;-60
2022/05/25 07:18:28;;;;;;;34.15;20.45;;;;;;;19.51;100.00;98429.53;5043188;28;20196;-60
2022/05/25 07:21:14;;;;;;;33.72;21.15;;;;;;;19.68;100.00;98425.13;5029316;28;20201;-60
2022/05/25 07:23:40;;;;;;;30.15;18.20;;;;;;;19.87;100.00;98430.09;5020109;28;20285;-60
2022/05/25 07:26:07;;;;;;;31.48;19.50;;;;;;;20.02;100.00;98438.97;5024063;28;20554;-60
2022/05/25 07:28:35;;;;;;;34.55;19.70;;;;;;;20.14;100.00;98430.66;5036761;28;20181;-60
2022/05/25 07:31:08;;;;;;;37.88;18.70;;;;;;;20.32;100.00;98428.66;5043605;28;20205;-60
2022/05/25 07:33:36;;;;;;;30.38;19.20;;;;;;;20.50;100.00;98433.72;5041786;28;20587;-60
2022/05/25 07:36:03;;;;;;;37.80;18.08;;;;;;;20.57;100.00;98434.72;5037906;28;20185;-60
2022/05/25 07:38:30;;;;;;;32.42;18.45;;;;;;;20.69;100.00;98433.38;5041710;28;20181;-60
2022/05/25 07:40:59;;;;;;;30.48;20.50;;;;;;;20.65;100.00;98437.34;5038724;28;20186;-60
2022/05/25 07:43:28;;;;;;;31.08;18.88;;;;;;;20.57;100.00;98434.72;5018632;28;20215;-60
2022/05/25 07:45:53;;;;;;;34.85;18.75;;;;;;;20.62;100.00;98445.53;5020981;28;20184;-60
2022/05/25 07:48:19;;;;;;;31.27;19.73;;;;;;;20.57;100.00;98439.97;5031241;28;20530;-60
2022/05/25 07:50:44;;;;;;;26.55;18.23;;;;;;;20.65;100.00;98453.09;5041011;28;20230;-60
2022/05/25 07:55:59;;;;;;;27.23;18.15;;;;;;;20.56;100.00;98459.34;5036510;28;20216;-60
2022/05/25 07:58:25;;;;;;;31.17;17.65;;;;;;;20.32;100.00;98449.69;5049185;28;20752;-60
2022/05/25 08:00:53;;;;;;;29.48;17.85;;;;;;;20.50;100.00;98454.75;5038167;28;20209;-60
2022/05/25 08:06:04;;;;;;;27.10;17.33;;;;;;;20.78;100.00;98458.66;5020122;28;20193;-60
2022/05/25 08:08:29;;;;;;;24.42;16.23;;;;;;;20.83;100.00;98459.00;5028092;28;20236;-60
2022/05/25 08:11:03;;;;;;;29.50;18.23;;;;;;;20.93;100.00;98462.28;5037489;28;20209;-60
2022/05/25 08:13:30;;;;;;;26.30;17.65;;;;;;;20.89;100.00;98451.28;5036369;28;20635;-59
2022/05/25 08:15:55;;;;;;;25.08;17.77;;;;;;;20.88;100.00;98454.06;5040361;28;20189;-60
2022/05/25 08:18:22;;;;;;;23.55;17.17;;;;;;;20.82;100.00;98452.94;5037936;28;20181;-60
2022/05/25 08:20:48;;;;;;;26.17;17.13;;;;;;;20.78;100.00;98458.66;5040672;28;20189;-60
2022/05/25 08:23:16;;;;;;;25.75;17.48;;;;;;;20.68;100.00;98447.53;5030571;28;20227;-62
2022/05/25 08:25:42;;;;;;;24.13;17.45;;;;;;;20.59;100.00;98451.16;5018457;28;20181;-60
2022/05/25 08:28:08;;;;;;;24.70;17.13;;;;;;;20.56;100.00;98456.72;5018688;28;20661;-60
2022/05/25 08:30:36;;;;;;;21.23;17.08;;;;;;;20.54;100.00;98459.53;5034785;28;20263;-59
2022/05/25 08:33:01;;;;;;;23.52;17.40;;;;;;;20.68;100.00;98464.13;5038416;28;20658;-60
2022/05/25 08:35:27;;;;;;;27.70;17.55;;;;;;;20.64;100.00;98465.41;5038442;28;20189;-60
2022/05/25 08:37:53;;;;;;;20.98;16.38;;;;;;;20.80;100.00;98461.97;5035255;28;20173;-61
2022/05/25 08:40:21;;;;;;;27.25;16.35;;;;;;;20.94;100.00;98470.03;5046761;28;20185;-60
2022/05/25 08:43:07;;;;;;;23.65;18.33;;;;;;;21.05;100.00;98482.00;5033083;28;20201;-60
2022/05/25 08:45:37;;;;;;;21.98;17.13;;;;;;;21.04;100.00;98485.63;5037883;28;20177;-60
2022/05/25 08:48:07;;;;;;;23.88;17.40;;;;;;;21.15;100.00;98496.59;5038796;28;20730;-61
2022/05/25 08:50:33;;;;;;;24.25;14.68;;;;;;;21.26;100.00;98496.22;5040845;28;20242;-59
2022/05/25 08:53:01;;;;;;;24.95;16.13;;;;;;;21.17;100.00;98483.28;5038826;28;20562;-61
2022/05/25 08:55:42;;;;;;;24.65;17.02;;;;;;;21.15;100.00;98488.69;5035556;28;20190;-60
2022/05/25 08:58:11;;;;;;;22.33;15.63;;;;;;;21.34;100.00;98488.28;5033786;28;20706;-59
2022/05/25 09:00:39;;;;;;;24.50;17.30;;;;;;;21.56;100.00;98486.75;5042615;28;20173;-59
2022/05/25 09:03:29;;;;;;;23.23;16.50;;;;;;;21.55;100.00;98495.63;5044808;28;20262;-59
2022/05/25 09:06:09;;;;;;;20.65;14.88;;;;;;;21.43;100.00;98486.44;5038520;28;20205;-59
2022/05/25 09:08:45;;;;;;;26.13;15.65;;;;;;;21.46;100.00;98486.97;5037997;28;20181;-59
2022/05/25 09:11:15;;;;;;;23.58;15.77;;;;;;;21.29;100.00;98479.28;5041419;28;20262;-59
2022/05/25 09:13:56;;;;;;;21.27;15.50;;;;;;;21.25;100.00;98476.16;5040152;28;21148;-59
2022/05/25 09:16:23;;;;;;;20.67;14.45;;;;;;;21.22;100.00;98479.13;5038259;28;20177;-59
2022/05/25 09:19:31;;;;;;;24.15;16.35;;;;;;;21.49;100.00;98481.34;5031372;28;20243;-59
2022/05/25 09:22:05;;;;;;;24.70;17.40;;;;;;;21.56;100.00;98484.13;5037126;28;20299;-60
2022/05/25 09:24:31;;;;;;;26.85;17.40;;;;;;;21.63;100.00;98483.22;5033369;28;20277;-60
2022/05/25 09:26:59;;;;;;;25.13;17.33;;;;;;;21.75;100.00;98481.06;5022113;28;20186;-59
2022/05/25 09:29:25;;;;;;;26.70;17.83;;;;;;;21.74;100.00;98479.44;5017936;28;20182;-60
2022/05/25 09:31:59;;;;;;;31.92;18.65;;;;;;;21.82;100.00;98482.03;5020247;28;21146;-60
2022/05/25 09:35:06;;;;;;;23.23;18.23;;;;;;;21.92;100.00;98483.44;5040114;28;20621;-60
2022/05/25 09:37:44;;;;;;;23.80;16.63;;;;;;;21.73;100.00;98473.34;5036585;28;20264;-60
2022/05/25 09:40:20;;;;;;;25.45;17.25;;;;;;;21.73;100.00;98481.25;5032495;28;21140;-60
2022/05/25 09:42:51;;;;;;;26.83;17.88;;;;;;;21.69;100.00;98471.22;5040393;28;20295;-60
2022/05/25 09:45:17;;;;;;;24.25;17.55;;;;;;;21.86;100.00;98464.88;5040420;28;21002;-60
2022/05/25 09:47:46;;;;;;;25.65;17.20;;;;;;;21.88;100.00;98478.69;5037193;28;20792;-59
2022/05/25 09:50:25;;;;;;;25.42;18.25;;;;;;;21.78;100.00;98446.47;5036856;28;20181;-61
2022/05/25 09:52:53;;;;;;;25.92;17.45;;;;;;;22.15;100.00;98476.34;5038935;28;20667;-59
2022/05/25 09:55:41;;;;;;;21.23;17.40;;;;;;;22.00;100.00;98479.94;5044313;28;20217;-61
2022/05/25 09:58:12;;;;;;;22.40;17.20;;;;;;;21.90;100.00;98480.16;5039840;28;21075;-60
2022/05/25 10:00:41;;;;;;;27.23;19.52;;;;;;;21.78;100.00;98480.72;5032525;28;20265;-60
2022/05/25 10:03:07;;;;;;;27.35;17.75;;;;;;;22.02;100.00;98470.06;5046210;28;20250;-60
2022/05/25 10:05:48;;;;;;;29.15;18.40;;;;;;;22.18;100.00;98477.81;5040874;28;20185;-60
2022/05/25 10:08:20;;;;;;;28.25;18.02;;;;;;;22.16;100.00;98441.13;5039901;28;20262;-60
2022/05/25 10:10:56;;;;;;;24.20;18.00;;;;;;;22.51;100.00;98473.97;5033661;28;20264;-60
2022/05/25 10:13:38;;;;;;;22.52;17.73;;;;;;;22.67;100.00;98479.91;5018598;28;20182;-60
2022/05/25 10:16:42;;;;;;;25.40;17.52;;;;;;;22.80;100.00;98482.78;5028056;28;20576;-60
2022/05/25 10:19:17;;;;;;;23.92;18.10;;;;;;;22.86;100.00;98468.03;5039064;28;20665;-60
2022/05/25 10:21:51;;;;;;;26.50;18.63;;;;;;;23.05;100.00;98470.13;5025570;28;20760;-60
2022/05/25 10:24:28;;;;;;;21.98;17.05;;;;;;;23.17;100.00;98473.97;5033186;28;20221;-60
2022/05/25 10:27:00;;;;;;;25.48;18.73;;;;;;;23.19;100.00;98475.44;5040865;28;20227;-60
2022/05/25 10:38:30;;;;;;;31.50;18.48;;;;;;;23.46;100.00;98471.31;5039238;28;20215;-61
2022/05/25 10:40:58;;;;;;;26.63;19.33;;;;;;;23.23;100.00;98466.16;5037926;28;20705;-61
2022/05/25 10:43:26;;;;;;;27.70;18.67;;;;;;;23.38;100.00;98468.78;5040178;28;20208;-60
2022/05/25 10:45:53;;;;;;;26.42;18.65;;;;;;;23.56;99.76;98469.22;5039078;28;20194;-62
2022/05/25 10:48:40;;;;;;;22.95;18.50;;;;;;;23.66;98.03;98464.47;5033048;28;20276;-60
2022/05/25 10:51:13;;;;;;;24.38;18.30;;;;;;;23.76;97.06;98465.81;5037799;28;20257;-60
2022/05/25 10:57:13;;;;;;;25.05;18.27;;;;;;;23.78;97.23;98467.25;5045386;28;20274;-60
2022/05/25 10:59:39;;;;;;;23.85;18.15;;;;;;;23.80;96.64;98465.25;5039425;28;20579;-60
2022/05/25 11:02:22;;;;;;;27.98;19.95;;;;;;;23.46;99.90;98458.94;5043557;28;20209;-61
2022/05/25 11:05:09;;;;;;;27.65;19.35;;;;;;;23.32;100.00;98461.59;5038184;28;20181;-61
2022/05/25 11:07:39;;;;;;;25.08;18.98;;;;;;;23.16;100.00;98454.69;5032181;28;20173;-61
2022/05/25 11:10:10;;;;;;;24.50;17.88;;;;;;;23.32;100.00;98459.78;5047648;28;20188;-61
2022/05/25 11:12:56;;;;;;;32.88;20.73;;;;;;;23.54;100.00;98458.03;5022208;28;20284;-61
2022/05/25 11:15:31;;;;;;;25.23;19.25;;;;;;;23.65;100.00;98454.91;5020395;28;20217;-59
2022/05/25 11:18:31;;;;;;;25.48;17.45;;;;;;;23.52;100.00;98449.44;5026280;28;20185;-58
2022/05/25 11:21:20;;;;;;;23.38;17.85;;;;;;;23.43;100.00;98453.22;5032236;28;20182;-60
2022/05/25 11:23:57;;;;;;;31.75;18.05;;;;;;;23.32;100.00;98449.22;5045060;28;20234;-59
2022/05/25 11:26:41;;;;;;;23.80;17.88;;;;;;;23.28;100.00;98457.69;5040453;28;20646;-59
2022/05/25 11:29:34;;;;;;;27.60;18.63;;;;;;;23.51;100.00;98450.47;5040400;28;20674;-59
2022/05/25 11:32:18;;;;;;;23.42;17.98;;;;;;;23.42;100.00;98455.03;5047034;28;20243;-59
2022/05/25 11:35:04;;;;;;;26.33;18.45;;;;;;;23.43;100.00;98447.94;5039115;28;20291;-59
2022/05/25 11:38:09;;;;;;;26.65;18.48;;;;;;;23.44;100.00;98450.41;5041007;28;20429;-59
2022/05/25 11:40:44;;;;;;;24.88;20.58;;;;;;;23.43;100.00;98445.28;5035157;28;20177;-59
2022/05/25 11:43:25;;;;;;;28.30;19.83;;;;;;;23.49;100.00;98441.91;5035218;28;20817;-60
2022/05/25 11:45:57;;;;;;;25.95;18.70;;;;;;;23.67;100.00;98444.97;5046136;28;20188;-59
2022/05/25 11:48:35;;;;;;;27.08;20.05;;;;;;;23.59;100.00;98442.44;5046176;28;20181;-60
2022/05/25 11:51:08;;;;;;;27.17;19.58;;;;;;;23.28;100.00;98439.19;5039606;28;20208;-60
2022/05/25 11:53:46;;;;;;;28.90;19.15;;;;;;;23.10;100.00;98433.44;5035658;28;20239;-59